createdAt,value
2017-08-13T00:01:25.773Z,80.11
2017-08-13T00:03:55.014Z,80.39
2017-08-13T00:06:24.256Z,80.73
2017-08-13T00:08:53.592Z,80.23
2017-08-13T00:11:22.837Z,80.38
2017-08-13T00:13:52.079Z,80.55
2017-08-13T00:16:21.331Z,80.50
2017-08-13T00:18:50.580Z,80.51
2017-08-13T00:21:19.820Z,80.45
2017-08-13T00:23:49.052Z,79.67
2017-08-13T00:26:18.342Z,78.96
2017-08-13T00:28:47.574Z,78.88
2017-08-13T00:31:16.849Z,78.33
2017-08-13T00:33:46.362Z,78.40
2017-08-13T00:36:15.592Z,77.90
2017-08-13T00:38:44.845Z,78.13
2017-08-13T00:41:14.096Z,78.24
2017-08-13T00:43:43.342Z,78.33
2017-08-13T00:46:12.596Z,77.40
2017-08-13T00:48:41.860Z,77.36
2017-08-13T00:51:11.151Z,76.75
2017-08-13T00:53:40.372Z,77.39
2017-08-13T00:56:09.624Z,77.55
2017-08-13T00:58:38.868Z,76.99
2017-08-13T01:01:07.787Z,76.74
2017-08-13T01:03:37.031Z,77.03
2017-08-13T01:06:06.275Z,77.34
2017-08-13T01:08:35.517Z,77.45
2017-08-13T01:11:04.769Z,77.36
2017-08-13T01:13:34.022Z,77.49
2017-08-13T01:16:03.273Z,77.35
2017-08-13T01:18:32.549Z,77.48
2017-08-13T01:21:01.791Z,77.39
2017-08-13T01:23:31.040Z,77.35
2017-08-13T01:26:00.285Z,77.17
2017-08-13T01:28:29.533Z,77.26
2017-08-13T01:30:58.785Z,77.40
2017-08-13T01:33:28.050Z,77.59
2017-08-13T01:35:57.390Z,77.62
2017-08-13T01:38:26.626Z,77.81
2017-08-13T01:40:55.869Z,78.39
2017-08-13T01:43:25.409Z,78.76
2017-08-13T01:45:54.649Z,78.50
2017-08-13T01:48:24.190Z,78.14
2017-08-13T01:50:53.415Z,78.55
2017-08-13T01:53:22.681Z,78.91
2017-08-13T01:55:52.253Z,79.22
2017-08-13T01:58:21.497Z,79.72
2017-08-13T02:00:50.756Z,79.63
2017-08-13T02:03:20.018Z,80.24
2017-08-13T02:05:49.274Z,80.47
2017-08-13T02:08:18.509Z,80.45
2017-08-13T02:10:47.766Z,80.37
2017-08-13T02:13:17.016Z,80.45
2017-08-13T02:15:46.281Z,80.70
2017-08-13T02:18:15.504Z,80.66
2017-08-13T02:20:44.773Z,80.69
2017-08-13T02:23:14.297Z,80.40
2017-08-13T02:25:43.640Z,80.49
2017-08-13T02:28:12.860Z,80.22
2017-08-13T02:30:42.112Z,80.52
2017-08-13T02:33:11.349Z,80.61
2017-08-13T02:35:40.614Z,80.88
2017-08-13T02:38:09.832Z,81.02
2017-08-13T02:40:39.080Z,81.19
2017-08-13T02:43:08.310Z,80.36
2017-08-13T02:45:37.545Z,80.74
2017-08-13T02:48:06.784Z,80.53
2017-08-13T02:50:36.027Z,80.62
2017-08-13T02:53:05.564Z,80.92
2017-08-13T02:55:34.805Z,81.01
2017-08-13T02:58:04.032Z,81.38
2017-08-13T03:00:33.324Z,81.38
2017-08-13T03:03:02.557Z,81.70
2017-08-13T03:05:31.805Z,81.89
2017-08-13T03:08:01.041Z,81.89
2017-08-13T03:10:30.288Z,81.81
2017-08-13T03:12:59.523Z,81.76
2017-08-13T03:15:28.787Z,81.88
2017-08-13T03:17:58.033Z,81.77
2017-08-13T03:20:27.339Z,82.25
2017-08-13T03:22:56.563Z,81.78
2017-08-13T03:25:25.813Z,81.98
2017-08-13T03:27:55.065Z,82.23
2017-08-13T03:30:24.341Z,82.03
2017-08-13T03:32:53.597Z,82.18
2017-08-13T03:35:22.903Z,81.87
2017-08-13T03:37:52.166Z,81.80
2017-08-13T03:40:21.447Z,82.35
2017-08-13T03:42:50.682Z,82.85
2017-08-13T03:45:20.243Z,82.37
2017-08-13T03:47:49.773Z,82.65
2017-08-13T03:50:19.063Z,82.68
2017-08-13T03:52:48.292Z,82.40
2017-08-13T03:55:17.636Z,83.05
2017-08-13T03:57:47.953Z,82.45
2017-08-13T04:00:17.520Z,82.73
2017-08-13T04:02:47.028Z,82.58
2017-08-13T04:05:16.596Z,83.02
2017-08-13T04:07:45.840Z,83.04
2017-08-13T04:10:15.146Z,82.39
2017-08-13T04:12:44.324Z,83.04
2017-08-13T04:15:13.619Z,83.13
2017-08-13T04:17:43.185Z,82.69
2017-08-13T04:20:12.462Z,82.78
2017-08-13T04:22:41.985Z,82.47
2017-08-13T04:25:11.277Z,82.76
2017-08-13T04:27:40.799Z,82.51
2017-08-13T04:30:10.379Z,82.63
2017-08-13T04:32:39.888Z,81.97
2017-08-13T04:35:09.202Z,81.88
2017-08-13T04:37:38.432Z,81.77
2017-08-13T04:40:07.995Z,81.83
2017-08-13T04:42:37.231Z,81.54
2017-08-13T04:45:06.548Z,81.72
2017-08-13T04:47:35.767Z,82.05
2017-08-13T04:50:05.118Z,81.50
2017-08-13T04:52:34.367Z,81.43
2017-08-13T04:55:03.639Z,81.25
2017-08-13T04:57:32.874Z,81.36
2017-08-13T05:00:02.218Z,81.36
2017-08-13T05:02:31.439Z,81.37
2017-08-13T05:05:00.696Z,81.48
2017-08-13T05:07:29.956Z,81.51
2017-08-13T05:09:59.211Z,81.60
2017-08-13T05:12:28.452Z,81.32
2017-08-13T05:14:57.705Z,81.12
2017-08-13T05:17:26.957Z,80.99
2017-08-13T05:19:56.209Z,80.99
2017-08-13T05:22:25.440Z,81.31
2017-08-13T05:24:54.689Z,81.21
2017-08-13T05:27:23.928Z,81.30
2017-08-13T05:29:53.177Z,81.78
2017-08-13T05:32:22.444Z,81.68
2017-08-13T05:34:51.698Z,81.66
2017-08-13T05:37:21.037Z,81.46
2017-08-13T05:39:50.267Z,81.33
2017-08-13T05:42:19.512Z,81.35
2017-08-13T05:44:48.760Z,81.21
2017-08-13T05:47:17.989Z,80.87
2017-08-13T05:49:47.260Z,80.93
2017-08-13T05:52:16.490Z,80.67
2017-08-13T05:54:45.721Z,80.49
2017-08-13T05:57:14.960Z,80.10
2017-08-13T05:59:44.236Z,79.71
2017-08-13T06:02:13.476Z,79.02
2017-08-13T06:04:43.393Z,79.27
2017-08-13T06:07:12.737Z,78.99
2017-08-13T06:09:42.612Z,79.96
2017-08-13T06:12:11.888Z,80.58
2017-08-13T06:14:41.138Z,80.91
2017-08-13T06:17:11.044Z,80.54
2017-08-13T06:19:40.297Z,80.20
2017-08-13T06:22:09.569Z,79.49
2017-08-13T06:24:38.803Z,79.96
2017-08-13T06:27:08.069Z,79.73
2017-08-13T06:29:37.349Z,78.92
2017-08-13T06:32:06.605Z,78.55
2017-08-13T06:34:35.840Z,78.26
2017-08-13T06:37:05.088Z,77.41
2017-08-13T06:39:34.329Z,76.02
2017-08-13T06:42:03.604Z,76.30
2017-08-13T06:44:32.851Z,76.34
2017-08-13T06:47:02.085Z,76.05
2017-08-13T06:49:31.328Z,75.48
2017-08-13T06:52:00.605Z,75.75
2017-08-13T06:54:29.852Z,75.48
2017-08-13T06:56:59.085Z,76.06
2017-08-13T06:59:28.358Z,75.58
2017-08-13T07:01:57.584Z,75.59
2017-08-13T07:04:26.824Z,75.68
2017-08-13T07:06:56.068Z,74.50
2017-08-13T07:09:25.345Z,75.51
2017-08-13T07:11:54.587Z,74.84
2017-08-13T07:14:25.442Z,74.32
2017-08-13T07:16:54.652Z,74.33
2017-08-13T07:19:23.894Z,73.63
2017-08-13T07:21:53.145Z,72.32
2017-08-13T07:24:22.394Z,73.12
2017-08-13T07:26:51.630Z,73.21
2017-08-13T07:29:20.869Z,71.65
2017-08-13T07:31:50.116Z,70.71
2017-08-13T07:34:19.365Z,70.65
2017-08-13T07:36:48.614Z,71.96
2017-08-13T07:39:17.853Z,71.77
2017-08-13T07:41:47.103Z,71.26
2017-08-13T07:44:16.360Z,71.30
2017-08-13T07:46:45.598Z,71.92
2017-08-13T07:49:14.844Z,72.57
2017-08-13T07:51:44.101Z,71.32
2017-08-13T07:54:13.354Z,72.59
2017-08-13T07:56:42.591Z,72.76
2017-08-13T07:59:11.844Z,73.80
2017-08-13T08:01:41.109Z,73.13
2017-08-13T08:04:10.393Z,73.79
2017-08-13T08:06:39.622Z,74.04
2017-08-13T08:09:08.875Z,72.32
2017-08-13T08:11:38.144Z,72.83
2017-08-13T08:14:07.409Z,73.19
2017-08-13T08:16:36.700Z,73.81
2017-08-13T08:19:05.991Z,74.75
2017-08-13T08:21:35.284Z,75.27
2017-08-13T08:24:04.546Z,74.98
2017-08-13T08:26:34.765Z,76.39
2017-08-13T08:29:04.051Z,76.91
2017-08-13T08:31:33.337Z,77.64
2017-08-13T08:34:02.590Z,77.33
2017-08-13T08:36:31.836Z,78.12
2017-08-13T08:39:01.081Z,78.03
2017-08-13T08:41:30.311Z,77.45
2017-08-13T08:43:59.556Z,78.07
2017-08-13T08:46:28.803Z,78.37
2017-08-13T08:48:58.089Z,77.70
2017-08-13T08:51:27.851Z,76.92
2017-08-13T08:53:57.108Z,77.31
2017-08-13T08:56:26.362Z,76.99
2017-08-13T08:58:55.605Z,77.17
2017-08-13T09:01:24.844Z,75.86
2017-08-13T09:03:54.103Z,75.70
2017-08-13T09:06:23.345Z,75.47
2017-08-13T09:08:52.608Z,75.93
2017-08-13T09:11:21.839Z,74.45
2017-08-13T09:13:51.086Z,74.68
2017-08-13T09:16:20.341Z,72.90
2017-08-13T09:18:49.588Z,72.38
2017-08-13T09:21:18.844Z,73.19
2017-08-13T09:23:48.356Z,73.03
2017-08-13T09:26:17.605Z,71.40
2017-08-13T09:28:46.502Z,71.56
2017-08-13T09:31:15.740Z,70.69
2017-08-13T09:33:44.983Z,70.97
2017-08-13T09:36:14.237Z,69.03
2017-08-13T09:38:43.493Z,69.04
2017-08-13T09:41:12.729Z,67.83
2017-08-13T09:43:41.979Z,66.77
2017-08-13T09:46:11.219Z,66.56
2017-08-13T09:48:40.466Z,66.12
2017-08-13T09:51:09.725Z,65.77
2017-08-13T09:53:38.964Z,66.32
2017-08-13T09:56:08.204Z,63.52
2017-08-13T09:58:37.451Z,62.39
2017-08-13T10:01:06.705Z,61.84
2017-08-13T10:03:35.954Z,62.68
2017-08-13T10:06:05.206Z,63.08
2017-08-13T10:08:34.472Z,61.74
2017-08-13T10:11:03.698Z,61.61
2017-08-13T10:13:33.002Z,60.85
2017-08-13T10:16:02.229Z,63.12
2017-08-13T10:18:31.505Z,62.94
2017-08-13T10:21:00.737Z,65.50
2017-08-13T10:23:29.978Z,64.21
2017-08-13T10:25:59.220Z,65.13
2017-08-13T10:28:28.497Z,64.81
2017-08-13T10:30:57.717Z,65.42
2017-08-13T10:33:26.972Z,65.48
2017-08-13T10:35:56.227Z,64.66
2017-08-13T10:38:25.486Z,63.33
2017-08-13T10:40:54.726Z,63.89
2017-08-13T10:43:23.976Z,64.28
2017-08-13T10:45:53.244Z,64.24
2017-08-13T10:48:22.498Z,63.47
2017-08-13T10:50:51.744Z,61.43
2017-08-13T10:53:20.985Z,61.04
2017-08-13T10:55:50.248Z,60.55
2017-08-13T10:58:19.522Z,62.04
2017-08-13T11:00:48.773Z,60.65
2017-08-13T11:03:18.717Z,60.52
2017-08-13T11:05:47.968Z,60.52
2017-08-13T11:08:17.214Z,58.30
2017-08-13T11:10:46.477Z,57.41
2017-08-13T11:13:15.747Z,56.61
2017-08-13T11:15:45.682Z,57.67
2017-08-13T11:18:14.913Z,56.37
2017-08-13T11:20:44.225Z,57.19
2017-08-13T11:23:13.468Z,54.81
2017-08-13T11:25:42.733Z,55.00
2017-08-13T11:28:11.961Z,54.70
2017-08-13T11:30:41.342Z,54.80
2017-08-13T11:33:10.601Z,57.95
2017-08-13T11:35:39.842Z,59.84
2017-08-13T11:38:09.080Z,58.92
2017-08-13T11:40:38.325Z,61.02
2017-08-13T11:43:07.582Z,60.52
2017-08-13T11:45:36.848Z,60.81
2017-08-13T11:48:06.139Z,57.73
2017-08-13T11:50:35.383Z,54.17
2017-08-13T11:53:04.636Z,53.02
2017-08-13T11:55:33.877Z,51.31
2017-08-13T11:58:03.142Z,49.64
2017-08-13T12:00:32.716Z,49.63
2017-08-13T12:03:01.948Z,50.93
2017-08-13T12:05:31.194Z,48.65
2017-08-13T12:08:00.434Z,49.21
2017-08-13T12:10:29.676Z,47.93
2017-08-13T12:12:58.924Z,47.47
2017-08-13T12:15:28.180Z,46.42
2017-08-13T12:17:57.431Z,44.31
2017-08-13T12:20:26.680Z,43.81
2017-08-13T12:22:55.921Z,45.79
2017-08-13T12:25:25.189Z,45.87
2017-08-13T12:27:54.484Z,45.43
2017-08-13T12:30:23.756Z,46.46
2017-08-13T12:32:53.035Z,46.85
2017-08-13T12:35:22.309Z,49.33
2017-08-13T12:37:51.534Z,50.37
2017-08-13T12:40:20.823Z,51.53
2017-08-13T12:42:50.066Z,52.19
2017-08-13T12:45:19.365Z,51.81
2017-08-13T12:47:48.608Z,50.82
2017-08-13T12:50:17.909Z,51.23
2017-08-13T12:52:47.136Z,48.64
2017-08-13T12:55:16.451Z,43.09
2017-08-13T12:57:45.676Z,40.85
2017-08-13T13:00:15.036Z,37.89
2017-08-13T13:02:44.296Z,35.26
2017-08-13T13:05:13.586Z,35.81
2017-08-13T13:07:42.812Z,33.81
2017-08-13T13:10:12.109Z,32.58
2017-08-13T13:12:41.336Z,32.02
2017-08-13T13:15:10.635Z,33.27
2017-08-13T13:17:39.865Z,32.14
2017-08-13T13:20:09.160Z,31.22
2017-08-13T13:22:38.409Z,34.99
2017-08-13T13:25:07.718Z,37.62
2017-08-13T13:27:36.945Z,40.81
2017-08-13T13:30:06.235Z,39.93
2017-08-13T13:32:35.498Z,37.03
2017-08-13T13:35:04.790Z,37.05
2017-08-13T13:37:34.063Z,36.76
2017-08-13T13:40:03.391Z,33.84
2017-08-13T13:42:32.636Z,36.72
2017-08-13T13:45:01.972Z,39.73
2017-08-13T13:47:31.215Z,41.02
2017-08-13T13:50:00.453Z,41.50
2017-08-13T13:52:29.713Z,41.44
2017-08-13T13:54:58.965Z,38.85
2017-08-13T13:57:28.226Z,38.27
2017-08-13T13:59:57.525Z,37.00
2017-08-13T14:02:26.748Z,37.07
2017-08-13T14:04:55.997Z,38.34
2017-08-13T14:07:25.245Z,36.76
2017-08-13T14:09:54.552Z,35.75
2017-08-13T14:12:23.829Z,34.23
2017-08-13T14:14:53.112Z,36.24
2017-08-13T14:17:22.413Z,36.56
2017-08-13T14:19:51.661Z,37.58
2017-08-13T14:22:20.936Z,38.77
2017-08-13T14:24:50.192Z,40.78
2017-08-13T14:27:19.421Z,38.65
2017-08-13T14:29:48.728Z,40.26
2017-08-13T14:32:18.165Z,40.57
2017-08-13T14:34:47.617Z,40.60
2017-08-13T14:37:17.057Z,40.65
2017-08-13T14:39:46.506Z,38.72
2017-08-13T14:42:15.965Z,36.17
2017-08-13T14:44:45.439Z,35.22
2017-08-13T14:47:14.889Z,31.91
2017-08-13T14:49:44.365Z,30.59
2017-08-13T14:52:13.786Z,31.45
2017-08-13T14:54:43.233Z,31.21
2017-08-13T14:57:12.777Z,28.92
2017-08-13T14:59:42.225Z,27.74
2017-08-13T15:02:11.715Z,29.76
2017-08-13T15:04:41.188Z,30.62
2017-08-13T15:07:10.692Z,35.98
2017-08-13T15:09:40.146Z,36.47
2017-08-13T15:12:09.577Z,38.31
2017-08-13T15:14:39.032Z,38.84
2017-08-13T15:17:08.596Z,38.34
2017-08-13T15:19:38.048Z,41.13
2017-08-13T15:22:07.516Z,39.62
2017-08-13T15:24:37.016Z,39.84
2017-08-13T15:27:06.500Z,36.99
2017-08-13T15:29:35.945Z,34.57
2017-08-13T15:32:05.407Z,36.21
2017-08-13T15:34:34.859Z,33.47
2017-08-13T15:37:04.294Z,33.35
2017-08-13T15:39:33.756Z,32.80
2017-08-13T15:42:03.201Z,31.30
2017-08-13T15:44:32.644Z,29.71
2017-08-13T15:47:02.108Z,34.09
2017-08-13T15:49:31.561Z,33.98
2017-08-13T15:52:01.011Z,36.09
2017-08-13T15:54:30.458Z,37.90
2017-08-13T15:56:59.905Z,40.03
2017-08-13T15:59:29.340Z,42.23
2017-08-13T16:01:58.834Z,44.48
2017-08-13T16:04:28.365Z,42.59
2017-08-13T16:06:57.832Z,44.17
2017-08-13T16:09:27.285Z,42.31
2017-08-13T16:11:56.730Z,42.59
2017-08-13T16:14:26.188Z,42.80
2017-08-13T16:16:55.628Z,40.39
2017-08-13T16:19:25.088Z,38.77
2017-08-13T16:21:54.545Z,36.34
2017-08-13T16:24:24.010Z,35.22
2017-08-13T16:26:53.471Z,34.21
2017-08-13T16:29:22.921Z,33.96
2017-08-13T16:31:52.365Z,33.81
2017-08-13T16:34:21.797Z,34.00
2017-08-13T16:36:51.257Z,32.98
2017-08-13T16:39:20.718Z,32.52
2017-08-13T16:41:50.283Z,33.71
2017-08-13T16:44:19.728Z,32.95
2017-08-13T16:46:49.194Z,32.39
2017-08-13T16:49:18.644Z,30.92
2017-08-13T16:51:48.144Z,30.17
2017-08-13T16:54:17.637Z,33.38
2017-08-13T16:56:47.088Z,34.17
2017-08-13T16:59:16.555Z,33.48
2017-08-13T17:01:46.009Z,33.73
2017-08-13T17:04:15.448Z,32.96
2017-08-13T17:06:44.904Z,32.65
2017-08-13T17:09:14.364Z,33.78
2017-08-13T17:11:43.815Z,32.75
2017-08-13T17:14:13.241Z,33.86
2017-08-13T17:16:42.684Z,37.38
2017-08-13T17:19:11.965Z,39.52
2017-08-13T17:21:41.429Z,40.45
2017-08-13T17:24:10.897Z,42.73
2017-08-13T17:26:40.392Z,44.40
2017-08-13T17:29:09.851Z,44.75
2017-08-13T17:31:39.299Z,45.25
2017-08-13T17:34:08.736Z,45.94
2017-08-13T17:36:38.245Z,46.52
2017-08-13T17:39:07.679Z,48.20
2017-08-13T17:41:37.125Z,49.87
2017-08-13T17:44:07.833Z,51.55
2017-08-13T17:46:37.346Z,52.72
2017-08-13T17:49:06.853Z,53.54
2017-08-13T17:51:36.439Z,54.94
2017-08-13T17:54:05.887Z,57.21
2017-08-13T17:56:35.322Z,58.97
2017-08-13T17:59:04.786Z,60.22
2017-08-13T18:01:34.225Z,60.86
2017-08-13T18:04:03.690Z,62.09
2017-08-13T18:06:33.140Z,63.51
2017-08-13T18:09:02.598Z,64.19
2017-08-13T18:11:31.869Z,63.54
2017-08-13T18:14:01.318Z,64.42
2017-08-13T18:16:30.754Z,66.36
2017-08-13T18:19:00.189Z,67.04
2017-08-13T18:21:29.672Z,68.19
2017-08-13T18:23:59.171Z,68.90
2017-08-13T18:26:28.615Z,69.68
2017-08-13T18:28:58.065Z,70.68
2017-08-13T18:31:27.500Z,71.76
2017-08-13T18:33:56.980Z,72.46
2017-08-13T18:36:26.436Z,73.02
2017-08-13T18:38:55.958Z,73.36
2017-08-13T18:41:25.481Z,73.94
2017-08-13T18:43:54.944Z,74.20
2017-08-13T18:46:25.089Z,74.39
2017-08-13T18:48:54.600Z,74.70
2017-08-13T18:51:24.786Z,75.74
2017-08-13T18:53:54.233Z,76.35
2017-08-13T18:56:23.691Z,76.93
2017-08-13T18:58:53.153Z,77.47
2017-08-13T19:01:22.602Z,78.59
2017-08-13T19:03:52.042Z,78.74
2017-08-13T19:06:21.510Z,79.43
2017-08-13T19:08:50.950Z,79.70
2017-08-13T19:11:20.427Z,80.04
2017-08-13T19:16:28.550Z,80.83
2017-08-13T19:18:58.050Z,81.36
2017-08-13T19:21:27.489Z,81.60
2017-08-13T19:23:56.930Z,82.19
2017-08-13T19:26:26.558Z,82.73
2017-08-13T19:28:56.088Z,83.05
2017-08-13T19:31:25.532Z,83.07
2017-08-13T19:33:54.975Z,83.28
2017-08-13T19:36:24.438Z,83.78
2017-08-13T19:38:53.904Z,83.98
2017-08-13T19:41:23.354Z,84.21
2017-08-13T19:43:52.802Z,84.51
2017-08-13T19:46:22.344Z,84.72
2017-08-13T19:48:51.789Z,85.10
2017-08-13T19:51:21.306Z,85.23
2017-08-13T19:53:50.783Z,85.68
2017-08-13T19:56:20.261Z,85.94
2017-08-13T19:58:49.701Z,86.52
2017-08-13T20:01:19.168Z,86.87
2017-08-13T20:03:48.730Z,87.15
2017-08-13T20:06:18.224Z,87.48
2017-08-13T20:08:47.761Z,87.54
2017-08-13T20:11:17.218Z,87.63
2017-08-13T20:13:46.679Z,87.88
2017-08-13T20:16:16.150Z,87.87
2017-08-13T20:18:45.606Z,87.97
2017-08-13T20:21:15.065Z,88.10
2017-08-13T20:23:44.540Z,88.17
2017-08-13T20:26:14.056Z,88.25
2017-08-13T20:28:43.500Z,88.27
2017-08-13T20:31:12.962Z,88.30
2017-08-13T20:33:42.407Z,88.20
2017-08-13T20:36:11.851Z,88.12
2017-08-13T20:38:41.288Z,88.24
2017-08-13T20:41:10.727Z,88.31
2017-08-13T20:43:40.177Z,88.62
2017-08-13T20:46:09.747Z,88.67
2017-08-13T20:48:39.205Z,88.61
2017-08-13T20:51:08.677Z,88.36
2017-08-13T20:53:38.133Z,88.23
2017-08-13T20:56:07.587Z,88.49
2017-08-13T20:58:37.033Z,88.51
2017-08-13T21:01:06.484Z,88.59
2017-08-13T21:03:35.940Z,88.74
2017-08-13T21:06:05.402Z,88.88
2017-08-13T21:08:35.556Z,89.19
2017-08-13T21:11:04.992Z,89.48
2017-08-13T21:13:34.448Z,89.71
2017-08-13T21:16:03.897Z,89.99
2017-08-13T21:18:33.376Z,90.19
2017-08-13T21:21:02.850Z,89.87
2017-08-13T21:23:32.298Z,90.26
2017-08-13T21:26:01.736Z,90.37
2017-08-13T21:28:31.326Z,90.56
2017-08-13T21:31:00.776Z,90.98
2017-08-13T21:33:30.245Z,91.04
2017-08-13T21:35:59.684Z,91.14
2017-08-13T21:38:29.124Z,91.22
2017-08-13T21:40:58.425Z,91.49
2017-08-13T21:43:27.861Z,91.55
2017-08-13T21:45:57.296Z,91.68
2017-08-13T21:48:26.753Z,91.84
2017-08-13T21:50:56.193Z,91.99
2017-08-13T21:53:25.641Z,92.13
2017-08-13T21:55:55.111Z,92.27
2017-08-13T21:58:24.844Z,92.49
2017-08-13T22:00:54.313Z,92.75
2017-08-13T22:03:29.389Z,92.83
2017-08-13T22:05:59.132Z,92.85
2017-08-13T22:08:28.867Z,92.70
2017-08-13T22:10:58.600Z,92.67
2017-08-13T22:13:28.075Z,92.64
2017-08-13T22:15:57.513Z,92.65
2017-08-13T22:18:26.953Z,92.84
2017-08-13T22:20:56.677Z,92.83
2017-08-13T22:23:26.144Z,93.00
2017-08-13T22:25:55.869Z,93.12
2017-08-13T22:28:25.617Z,93.32
2017-08-13T22:30:55.363Z,93.55
2017-08-13T22:33:25.101Z,93.65
2017-08-13T22:35:54.545Z,93.53
2017-08-13T22:38:24.015Z,93.52
2017-08-13T22:40:53.724Z,93.55
2017-08-13T22:43:23.478Z,93.68
2017-08-13T22:45:53.197Z,93.84
2017-08-13T22:48:22.926Z,93.87
2017-08-13T22:50:52.652Z,93.81
2017-08-13T22:53:22.094Z,93.72
2017-08-13T22:55:51.828Z,93.66
2017-08-13T22:58:21.584Z,93.75
2017-08-13T23:00:51.149Z,93.75
2017-08-13T23:03:20.692Z,93.91
2017-08-13T23:05:50.423Z,93.84
2017-08-13T23:08:20.172Z,93.83
2017-08-13T23:10:49.906Z,94.03
2017-08-13T23:13:19.629Z,94.13
2017-08-13T23:15:49.372Z,94.38
2017-08-13T23:18:19.109Z,94.59
2017-08-13T23:20:49.251Z,94.69
2017-08-13T23:23:18.976Z,94.70
2017-08-13T23:25:48.759Z,94.60
2017-08-13T23:28:18.510Z,94.68
2017-08-13T23:30:48.292Z,94.67
2017-08-13T23:33:18.010Z,94.74
2017-08-13T23:35:47.750Z,94.79
2017-08-13T23:38:17.491Z,94.77
2017-08-13T23:40:47.221Z,94.82
2017-08-13T23:43:17.001Z,94.88
2017-08-13T23:45:47.416Z,94.99
2017-08-13T23:48:17.147Z,95.11
2017-08-13T23:50:46.889Z,95.17
2017-08-13T23:53:16.620Z,95.30
2017-08-13T23:55:46.341Z,95.26
2017-08-13T23:58:16.091Z,95.38
